createdAt,value
2019-04-11T00:00:33.400Z,59.79
2019-04-11T00:01:39.462Z,60.10
2019-04-11T00:02:34.371Z,59.69
2019-04-11T00:03:33.571Z,59.50
2019-04-11T00:04:34.387Z,60.10
2019-04-11T00:05:33.338Z,60.13
2019-04-11T00:06:33.829Z,60.24
2019-04-11T00:07:33.312Z,60.31
2019-04-11T00:08:34.185Z,60.34
2019-04-11T00:09:34.442Z,60.75
2019-04-11T00:10:33.416Z,60.34
2019-04-11T00:11:33.599Z,60.13
2019-04-11T00:12:33.270Z,60.13
2019-04-11T00:13:35.186Z,60.13
2019-04-11T00:14:33.239Z,60.34
2019-04-11T00:15:33.227Z,60.44
2019-04-11T00:16:33.216Z,60.55
2019-04-11T00:17:34.195Z,60.96
2019-04-11T00:18:33.205Z,60.75
2019-04-11T00:19:33.645Z,60.75
2019-04-11T00:20:33.871Z,60.96
2019-04-11T00:21:33.163Z,60.24
2019-04-11T00:22:33.346Z,61.07
2019-04-11T00:23:34.156Z,60.44
2019-04-11T00:24:33.139Z,59.71
2019-04-11T00:25:33.756Z,60.96
2019-04-11T00:26:33.107Z,60.96
2019-04-11T00:27:33.096Z,61.07
2019-04-11T00:28:34.030Z,60.96
2019-04-11T00:29:33.077Z,60.86
2019-04-11T00:30:33.077Z,60.86
2019-04-11T00:31:33.054Z,60.86
2019-04-11T00:32:33.767Z,60.96
2019-04-11T00:33:33.988Z,60.86
2019-04-11T00:34:33.137Z,60.86
2019-04-11T00:35:33.597Z,60.75
2019-04-11T00:36:33.008Z,61.17
2019-04-11T00:37:32.989Z,60.75
2019-04-11T00:38:34.111Z,60.75
2019-04-11T00:39:32.967Z,60.34
2019-04-11T00:40:33.288Z,60.44
2019-04-11T00:41:34.208Z,60.13
2019-04-11T00:42:32.952Z,60.68
2019-04-11T00:43:37.632Z,60.47
2019-04-11T00:44:34.741Z,61.17
2019-04-11T00:45:33.809Z,60.75
2019-04-11T00:46:32.892Z,61.38
2019-04-11T00:47:33.191Z,61.58
2019-04-11T00:48:33.502Z,60.75
2019-04-11T00:49:32.859Z,61.07
2019-04-11T00:50:32.848Z,60.65
2019-04-11T00:51:33.863Z,61.58
2019-04-11T00:52:33.628Z,61.40
2019-04-11T00:53:33.993Z,61.61
2019-04-11T00:54:33.168Z,61.40
2019-04-11T00:55:32.796Z,61.92
2019-04-11T00:56:32.785Z,61.82
2019-04-11T00:57:32.825Z,61.71
2019-04-11T00:58:33.860Z,62.02
2019-04-11T00:59:32.751Z,61.82
2019-04-11T01:00:33.354Z,61.61
2019-04-11T01:01:33.674Z,62.02
2019-04-11T01:02:33.657Z,61.92
2019-04-11T01:03:33.825Z,61.92
2019-04-11T01:04:32.804Z,62.02
2019-04-11T01:05:33.817Z,61.71
2019-04-11T01:06:32.690Z,62.13
2019-04-11T01:07:33.173Z,62.13
2019-04-11T01:08:32.656Z,61.92
2019-04-11T01:09:32.731Z,62.13
2019-04-11T01:10:32.632Z,62.24
2019-04-11T01:11:32.621Z,62.86
2019-04-11T01:12:32.623Z,62.45
2019-04-11T01:13:42.508Z,62.45
2019-04-11T01:14:34.196Z,62.34
2019-04-11T01:15:32.582Z,62.24
2019-04-11T01:16:32.652Z,62.76
2019-04-11T01:17:33.593Z,62.45
2019-04-11T01:18:32.559Z,62.65
2019-04-11T01:19:33.019Z,62.86
2019-04-11T01:20:32.525Z,62.45
2019-04-11T01:21:32.820Z,62.57
2019-04-11T01:22:32.504Z,63.28
2019-04-11T01:23:33.238Z,63.07
2019-04-11T01:24:33.616Z,62.99
2019-04-11T01:25:32.702Z,62.96
2019-04-11T01:26:33.004Z,63.20
2019-04-11T01:27:32.448Z,62.88
2019-04-11T01:28:32.448Z,62.99
2019-04-11T01:29:33.463Z,62.37
2019-04-11T01:30:33.303Z,62.99
2019-04-11T01:31:32.421Z,62.68
2019-04-11T01:32:32.594Z,63.41
2019-04-11T01:33:32.404Z,64.03
2019-04-11T01:34:32.926Z,62.88
2019-04-11T01:35:33.197Z,63.62
2019-04-11T01:36:33.223Z,63.85
2019-04-11T01:37:33.452Z,63.62
2019-04-11T01:38:32.531Z,63.82
2019-04-11T01:39:32.793Z,63.72
2019-04-11T01:40:32.324Z,63.72
2019-04-11T01:41:32.300Z,63.96
2019-04-11T01:42:33.370Z,64.06
2019-04-11T01:43:32.504Z,63.75
2019-04-11T01:44:32.541Z,64.24
2019-04-11T01:45:32.272Z,64.27
2019-04-11T01:46:32.255Z,64.37
2019-04-11T01:47:32.976Z,64.27
2019-04-11T01:48:33.319Z,64.48
2019-04-11T01:49:32.400Z,64.14
2019-04-11T01:50:32.871Z,64.17
2019-04-11T01:51:32.196Z,64.69
2019-04-11T01:52:32.182Z,64.27
2019-04-11T01:53:33.143Z,64.37
2019-04-11T01:54:32.251Z,64.37
2019-04-11T01:55:32.576Z,64.69
2019-04-11T01:56:32.142Z,64.61
2019-04-11T01:57:32.132Z,64.89
2019-04-11T01:58:32.975Z,64.72
2019-04-11T01:59:32.295Z,64.69
2019-04-11T02:00:32.306Z,64.69
2019-04-11T02:01:32.673Z,64.89
2019-04-11T02:02:32.700Z,64.58
2019-04-11T02:03:33.099Z,64.69
2019-04-11T02:04:32.126Z,64.69
2019-04-11T02:05:32.811Z,65.00
2019-04-11T02:06:32.075Z,64.51
2019-04-11T02:07:32.025Z,65.10
2019-04-11T02:08:32.015Z,64.92
2019-04-11T02:09:32.444Z,64.92
2019-04-11T02:10:32.882Z,64.92
2019-04-11T02:11:31.983Z,64.61
2019-04-11T02:12:32.028Z,65.44
2019-04-11T02:13:32.195Z,65.34
2019-04-11T02:14:31.952Z,65.34
2019-04-11T02:15:32.412Z,65.34
2019-04-11T02:16:32.748Z,65.34
2019-04-11T02:17:32.855Z,65.34
2019-04-11T02:18:31.921Z,65.13
2019-04-11T02:19:32.194Z,65.13
2019-04-11T02:20:31.889Z,65.44
2019-04-11T02:21:31.880Z,65.34
2019-04-11T02:22:32.748Z,65.86
2019-04-11T02:23:32.018Z,65.13
2019-04-11T02:24:32.107Z,65.13
2019-04-11T02:25:32.349Z,65.03
2019-04-11T02:26:31.826Z,65.13
2019-04-11T02:27:32.701Z,65.13
2019-04-11T02:28:32.826Z,65.23
2019-04-11T02:29:31.793Z,65.23
2019-04-11T02:30:31.794Z,65.03
2019-04-11T02:31:32.603Z,65.75
2019-04-11T02:32:32.042Z,65.55
2019-04-11T02:33:32.934Z,66.09
2019-04-11T02:34:31.755Z,66.41
2019-04-11T02:35:31.766Z,66.30
2019-04-11T02:36:33.744Z,66.30
2019-04-11T02:37:33.468Z,66.72
2019-04-11T02:38:32.640Z,66.83
2019-04-11T02:39:33.795Z,66.30
2019-04-11T02:40:32.699Z,66.20
2019-04-11T02:41:33.506Z,66.20
2019-04-11T02:42:33.015Z,66.72
2019-04-11T02:43:32.089Z,66.51
2019-04-11T02:44:46.076Z,66.72
2019-04-11T02:45:45.200Z,66.62
2019-04-11T02:46:42.451Z,66.62
2019-04-11T02:47:35.153Z,66.30
2019-04-11T02:48:33.008Z,66.30
2019-04-11T02:49:32.929Z,66.30
2019-04-11T02:50:32.134Z,67.45
2019-04-11T02:51:31.562Z,66.93
2019-04-11T02:52:33.186Z,67.55
2019-04-11T02:53:32.724Z,67.45
2019-04-11T02:54:33.536Z,67.03
2019-04-11T02:55:31.717Z,66.83
2019-04-11T02:56:33.457Z,66.72
2019-04-11T02:57:32.217Z,67.45
2019-04-11T02:58:31.875Z,67.35
2019-04-11T02:59:31.491Z,66.83
2019-04-11T03:00:33.088Z,66.83
2019-04-11T03:01:31.941Z,67.90
2019-04-11T03:02:32.702Z,67.58
2019-04-11T03:03:31.993Z,68.07
2019-04-11T03:04:31.671Z,68.18
2019-04-11T03:05:34.510Z,67.97
2019-04-11T03:06:33.259Z,68.21
2019-04-11T03:07:31.975Z,68.00
2019-04-11T03:08:34.108Z,67.90
2019-04-11T03:09:31.806Z,68.07
2019-04-11T03:10:33.504Z,67.66
2019-04-11T03:11:32.518Z,67.69
2019-04-11T03:12:31.968Z,68.00
2019-04-11T03:13:33.200Z,68.00
2019-04-11T03:14:46.252Z,68.63
2019-04-11T03:15:48.329Z,68.63
2019-04-11T03:16:42.675Z,68.52
2019-04-11T03:17:36.870Z,68.63
2019-04-11T03:18:52.872Z,68.84
2019-04-11T03:19:44.182Z,68.52
2019-04-11T03:20:39.243Z,68.63
2019-04-11T03:21:36.687Z,68.32
2019-04-11T03:22:32.693Z,69.25
2019-04-11T03:23:31.703Z,69.35
2019-04-11T03:24:33.250Z,69.04
2019-04-11T03:25:33.011Z,69.04
2019-04-11T03:26:31.261Z,69.04
2019-04-11T03:27:32.529Z,68.66
2019-04-11T03:28:33.046Z,68.52
2019-04-11T03:29:33.331Z,69.15
2019-04-11T03:30:46.510Z,69.25
2019-04-11T03:32:13.954Z,69.35
2019-04-11T03:33:18.286Z,68.63
2019-04-11T03:36:28.375Z,69.25
2019-04-11T03:37:55.210Z,69.56
2019-04-11T03:38:58.773Z,69.46
2019-04-11T03:39:53.864Z,68.94
2019-04-11T03:40:52.024Z,68.94
2019-04-11T03:41:51.846Z,68.94
2019-04-11T03:42:43.336Z,69.35
2019-04-11T03:43:42.021Z,69.04
2019-04-11T03:44:39.528Z,69.35
2019-04-11T03:45:47.922Z,69.46
2019-04-11T03:46:48.199Z,69.25
2019-04-11T03:47:47.594Z,69.56
2019-04-11T03:48:43.743Z,69.77
2019-04-11T03:49:43.255Z,69.98
2019-04-11T03:50:32.888Z,69.91
2019-04-11T03:51:31.267Z,70.01
2019-04-11T03:52:32.629Z,70.29
2019-04-11T03:53:32.483Z,70.29
2019-04-11T03:54:31.822Z,70.32
2019-04-11T03:55:32.454Z,70.09
2019-04-11T03:56:30.874Z,70.19
2019-04-11T03:57:31.867Z,70.61
2019-04-11T03:58:31.242Z,70.95
2019-04-11T03:59:31.442Z,70.53
2019-04-11T04:00:35.944Z,70.43
2019-04-11T04:01:32.576Z,70.22
2019-04-11T04:02:32.335Z,70.32
2019-04-11T04:03:31.107Z,70.32
2019-04-11T04:04:30.788Z,70.01
2019-04-11T04:05:36.187Z,70.12
2019-04-11T04:06:33.031Z,70.53
2019-04-11T04:07:31.967Z,70.74
2019-04-11T04:08:31.449Z,70.32
2019-04-11T04:09:30.745Z,70.53
2019-04-11T04:10:31.792Z,71.16
2019-04-11T04:11:32.641Z,71.26
2019-04-11T04:12:31.437Z,70.95
2019-04-11T04:13:31.935Z,71.26
2019-04-11T04:14:32.448Z,71.16
2019-04-11T04:15:41.033Z,71.09
2019-04-11T04:16:40.148Z,71.05
2019-04-11T04:17:32.956Z,71.05
2019-04-11T04:18:31.777Z,71.16
2019-04-11T04:19:32.686Z,71.16
2019-04-11T04:20:30.728Z,71.16
2019-04-11T04:21:31.152Z,71.05
2019-04-11T04:22:31.477Z,71.16
2019-04-11T04:23:31.458Z,71.16
2019-04-11T04:24:34.806Z,71.47
2019-04-11T04:25:32.515Z,71.16
2019-04-11T04:26:31.317Z,71.47
2019-04-11T04:27:32.195Z,71.89
2019-04-11T04:28:31.745Z,72.02
2019-04-11T04:29:32.317Z,71.37
2019-04-11T04:30:30.513Z,71.78
2019-04-11T04:31:30.777Z,71.61
2019-04-11T04:32:32.294Z,71.78
2019-04-11T04:33:31.458Z,71.61
2019-04-11T04:34:31.608Z,72.13
2019-04-11T04:35:31.684Z,71.92
2019-04-11T04:36:30.911Z,72.27
2019-04-11T04:37:31.971Z,72.55
2019-04-11T04:38:31.561Z,72.44
2019-04-11T04:39:31.365Z,73.10
2019-04-11T04:40:47.964Z,72.89
2019-04-11T04:41:39.266Z,73.31
2019-04-11T04:42:37.051Z,73.49
2019-04-11T04:43:32.191Z,73.00
2019-04-11T04:44:31.717Z,73.21
2019-04-11T04:45:49.732Z,73.62
2019-04-11T04:46:47.345Z,73.21
2019-04-11T04:47:39.507Z,73.49
2019-04-11T04:48:32.362Z,73.52
2019-04-11T04:49:32.213Z,73.69
2019-04-11T04:50:30.931Z,72.78
2019-04-11T04:51:31.170Z,73.10
2019-04-11T04:52:31.889Z,73.62
2019-04-11T04:53:30.980Z,73.69
2019-04-11T04:54:30.817Z,73.49
2019-04-11T04:55:30.504Z,73.07
2019-04-11T04:56:32.216Z,74.35
2019-04-11T04:57:31.756Z,73.21
2019-04-11T04:58:31.677Z,73.83
2019-04-11T04:59:31.836Z,73.31
2019-04-11T05:00:32.005Z,73.31
2019-04-11T05:01:31.566Z,73.72
2019-04-11T05:02:30.963Z,73.49
2019-04-11T05:03:31.840Z,73.31
2019-04-11T05:04:31.690Z,73.31
2019-04-11T05:05:31.047Z,74.35
2019-04-11T05:06:30.123Z,74.04
2019-04-11T05:07:34.145Z,74.04
2019-04-11T05:08:32.552Z,74.46
2019-04-11T05:09:30.092Z,74.77
2019-04-11T05:10:30.694Z,74.56
2019-04-11T05:11:30.566Z,74.66
2019-04-11T05:12:30.354Z,74.56
2019-04-11T05:13:30.295Z,74.87
2019-04-11T05:14:31.434Z,74.77
2019-04-11T05:15:30.159Z,74.56
2019-04-11T05:16:30.033Z,74.77
2019-04-11T05:17:30.007Z,74.87
2019-04-11T05:18:29.997Z,74.87
2019-04-11T05:19:30.062Z,74.56
2019-04-11T05:20:30.212Z,74.87
2019-04-11T05:21:29.960Z,75.08
2019-04-11T05:22:30.978Z,74.87
2019-04-11T05:23:29.943Z,75.18
2019-04-11T05:24:30.481Z,75.08
2019-04-11T05:25:30.629Z,75.08
2019-04-11T05:26:29.919Z,75.15
2019-04-11T05:27:29.896Z,74.42
2019-04-11T05:28:29.885Z,74.63
2019-04-11T05:29:29.874Z,73.69
2019-04-11T05:30:29.864Z,74.70
2019-04-11T05:31:30.325Z,73.55
2019-04-11T05:32:29.852Z,72.83
2019-04-11T05:33:29.839Z,72.83
2019-04-11T05:34:29.820Z,72.79
2019-04-11T05:35:29.951Z,72.06
2019-04-11T05:36:30.417Z,71.92
2019-04-11T05:37:29.790Z,72.34
2019-04-11T05:38:29.792Z,72.31
2019-04-11T05:39:29.769Z,70.95
2019-04-11T05:40:30.104Z,70.51
2019-04-11T05:41:29.747Z,69.99
2019-04-11T05:42:29.735Z,69.33
2019-04-11T05:43:35.902Z,68.84
2019-04-11T05:44:30.724Z,69.57
2019-04-11T05:45:29.703Z,69.96
2019-04-11T05:46:35.352Z,69.85
2019-04-11T05:47:31.719Z,69.74
2019-04-11T05:48:30.539Z,69.20
2019-04-11T05:49:35.137Z,68.16
2019-04-11T05:50:31.929Z,68.47
2019-04-11T05:51:36.875Z,68.47
2019-04-11T05:52:32.224Z,68.37
2019-04-11T05:53:32.747Z,68.37
2019-04-11T05:54:29.607Z,68.05
2019-04-11T05:55:30.169Z,68.60
2019-04-11T05:56:29.932Z,69.57
2019-04-11T05:57:35.299Z,70.09
2019-04-11T05:58:30.563Z,70.95
2019-04-11T05:59:30.611Z,71.51
2019-04-11T06:00:30.492Z,72.55
2019-04-11T06:01:30.741Z,71.79
2019-04-11T06:02:29.543Z,71.27
2019-04-11T06:03:30.254Z,70.72
2019-04-11T06:04:30.243Z,70.40
2019-04-11T06:05:32.405Z,71.13
2019-04-11T06:06:36.078Z,71.23
2019-04-11T06:07:30.477Z,71.34
2019-04-11T06:08:30.792Z,71.44
2019-04-11T06:09:32.963Z,71.34
2019-04-11T06:10:30.433Z,70.89
2019-04-11T06:11:30.538Z,70.23
2019-04-11T06:12:29.656Z,69.82
2019-04-11T06:13:29.410Z,69.71
2019-04-11T06:14:29.388Z,70.13
2019-04-11T06:15:29.377Z,69.71
2019-04-11T06:16:37.020Z,69.27
2019-04-11T06:17:30.357Z,68.47
2019-04-11T06:18:33.018Z,70.17
2019-04-11T06:19:30.580Z,70.23
2019-04-11T06:20:29.331Z,70.54
2019-04-11T06:21:29.313Z,69.06
2019-04-11T06:22:29.723Z,69.03
2019-04-11T06:23:29.616Z,67.76
2019-04-11T06:24:29.286Z,66.27
2019-04-11T06:25:30.882Z,67.20
2019-04-11T06:26:30.411Z,66.35
2019-04-11T06:27:30.375Z,66.24
2019-04-11T06:28:30.637Z,65.41
2019-04-11T06:29:29.920Z,67.20
2019-04-11T06:30:30.409Z,66.93
2019-04-11T06:31:29.821Z,66.93
2019-04-11T06:32:29.910Z,67.10
2019-04-11T06:33:29.188Z,66.99
2019-04-11T06:34:30.325Z,66.61
2019-04-11T06:35:30.245Z,68.41
2019-04-11T06:36:30.109Z,67.86
2019-04-11T06:37:29.796Z,66.38
2019-04-11T06:38:30.275Z,66.58
2019-04-11T06:39:29.471Z,66.44
2019-04-11T06:40:29.267Z,65.69
2019-04-11T06:41:29.102Z,65.14
2019-04-11T06:42:30.185Z,64.62
2019-04-11T06:43:29.088Z,64.21
2019-04-11T06:44:30.052Z,64.62
2019-04-11T06:45:29.390Z,65.35
2019-04-11T06:46:29.305Z,64.39
2019-04-11T06:47:29.238Z,63.97
2019-04-11T06:48:29.682Z,63.66
2019-04-11T06:49:29.027Z,64.28
2019-04-11T06:50:29.151Z,63.76
2019-04-11T06:51:30.203Z,64.31
2019-04-11T06:52:28.985Z,64.39
2019-04-11T06:53:30.087Z,63.84
2019-04-11T06:54:28.960Z,63.95
2019-04-11T06:55:29.061Z,63.74
2019-04-11T06:56:29.362Z,63.32
2019-04-11T06:57:30.010Z,63.71
2019-04-11T06:58:29.710Z,61.95
2019-04-11T06:59:29.131Z,62.18
2019-04-11T07:00:29.303Z,63.40
2019-04-11T07:01:29.961Z,61.82
2019-04-11T07:02:29.894Z,61.61
2019-04-11T07:03:30.438Z,61.82
2019-04-11T07:04:29.464Z,61.10
2019-04-11T07:05:29.029Z,61.74
2019-04-11T07:06:29.413Z,61.77
2019-04-11T07:07:30.513Z,62.63
2019-04-11T07:08:29.974Z,62.08
2019-04-11T07:09:28.830Z,62.08
2019-04-11T07:10:28.786Z,62.18
2019-04-11T07:11:28.792Z,62.16
2019-04-11T07:12:28.764Z,62.46
2019-04-11T07:13:28.767Z,61.82
2019-04-11T07:14:29.163Z,62.02
2019-04-11T07:15:29.404Z,60.91
2019-04-11T07:16:29.659Z,61.54
2019-04-11T07:17:29.652Z,61.43
2019-04-11T07:18:29.103Z,61.74
2019-04-11T07:19:28.746Z,62.05
2019-04-11T07:20:29.304Z,61.54
2019-04-11T07:21:28.666Z,61.92
2019-04-11T07:22:28.656Z,60.37
2019-04-11T07:23:28.649Z,60.68
2019-04-11T07:24:28.635Z,60.58
2019-04-11T07:25:28.949Z,60.24
2019-04-11T07:26:29.456Z,59.93
2019-04-11T07:27:28.603Z,59.93
2019-04-11T07:28:29.471Z,61.14
2019-04-11T07:29:29.233Z,59.90
2019-04-11T07:30:28.931Z,60.52
2019-04-11T07:31:29.871Z,60.60
2019-04-11T07:32:29.774Z,59.53
2019-04-11T07:33:28.932Z,59.05
2019-04-11T07:34:32.744Z,59.25
2019-04-11T07:35:29.515Z,58.74
2019-04-11T07:36:29.574Z,59.36
2019-04-11T07:37:28.503Z,59.28
2019-04-11T07:38:29.409Z,60.00
2019-04-11T07:39:28.933Z,60.08
2019-04-11T07:40:29.341Z,59.44
2019-04-11T07:41:29.738Z,58.45
2019-04-11T07:42:28.442Z,57.96
2019-04-11T07:43:29.220Z,59.12
2019-04-11T07:44:30.163Z,58.64
2019-04-11T07:45:28.406Z,58.81
2019-04-11T07:46:28.962Z,58.30
2019-04-11T07:47:29.480Z,59.74
2019-04-11T07:48:29.210Z,58.69
2019-04-11T07:49:28.582Z,58.99
2019-04-11T07:50:28.350Z,57.34
2019-04-11T07:51:28.539Z,57.42
2019-04-11T07:52:31.362Z,57.34
2019-04-11T07:53:28.603Z,57.45
2019-04-11T07:54:28.309Z,58.99
2019-04-11T07:55:28.308Z,57.55
2019-04-11T07:56:29.420Z,57.96
2019-04-11T07:57:28.493Z,57.34
2019-04-11T07:58:28.620Z,57.03
2019-04-11T07:59:29.481Z,57.11
2019-04-11T08:00:38.857Z,57.42
2019-04-11T08:01:29.465Z,57.62
2019-04-11T08:02:29.036Z,57.09
2019-04-11T08:03:28.213Z,56.26
2019-04-11T08:04:28.238Z,56.77
2019-04-11T08:05:28.192Z,55.33
2019-04-11T08:06:28.828Z,56.26
2019-04-11T08:07:28.249Z,56.88
2019-04-11T08:08:28.157Z,56.90
2019-04-11T08:09:29.011Z,57.32
2019-04-11T08:10:29.358Z,56.70
2019-04-11T08:11:28.126Z,57.18
2019-04-11T08:12:28.115Z,55.95
2019-04-11T08:13:28.381Z,54.92
2019-04-11T08:14:28.690Z,56.36
2019-04-11T08:15:29.298Z,56.57
2019-04-11T08:16:28.950Z,56.90
2019-04-11T08:17:37.059Z,57.11
2019-04-11T08:18:29.060Z,57.42
2019-04-11T08:19:28.876Z,57.50
2019-04-11T08:20:29.091Z,57.16
2019-04-11T08:21:28.283Z,55.64
2019-04-11T08:22:28.010Z,56.08
2019-04-11T08:23:27.996Z,57.11
2019-04-11T08:24:28.879Z,57.06
2019-04-11T08:25:29.226Z,55.41
2019-04-11T08:26:28.306Z,55.28
2019-04-11T08:27:27.952Z,55.41
2019-04-11T08:28:28.964Z,55.62
2019-04-11T08:29:28.632Z,54.66
2019-04-11T08:30:27.926Z,55.51
2019-04-11T08:31:28.831Z,55.72
2019-04-11T08:32:27.895Z,56.13
2019-04-11T08:33:28.800Z,56.54
2019-04-11T08:34:29.090Z,56.13
2019-04-11T08:35:28.356Z,56.41
2019-04-11T08:36:27.859Z,54.53
2019-04-11T08:37:27.838Z,55.36
2019-04-11T08:38:28.778Z,53.43
2019-04-11T08:39:29.006Z,54.28
2019-04-11T08:40:28.132Z,54.58
2019-04-11T08:41:27.798Z,54.56
2019-04-11T08:42:27.792Z,54.48
2019-04-11T08:43:28.933Z,54.35
2019-04-11T08:44:28.059Z,53.41
2019-04-11T08:45:27.749Z,53.41
2019-04-11T08:46:28.879Z,53.25
2019-04-11T08:47:40.154Z,53.97
2019-04-11T08:48:28.924Z,54.41
2019-04-11T08:49:29.943Z,53.41
2019-04-11T08:50:28.284Z,54.33
2019-04-11T08:51:27.683Z,53.30
2019-04-11T08:52:27.944Z,53.33
2019-04-11T08:53:28.808Z,53.43
2019-04-11T08:54:27.661Z,53.35
2019-04-11T08:55:27.638Z,53.56
2019-04-11T08:56:28.529Z,53.35
2019-04-11T08:57:27.616Z,54.38
2019-04-11T08:58:28.763Z,54.28
2019-04-11T08:59:27.596Z,54.74
2019-04-11T09:00:28.262Z,53.30
2019-04-11T09:01:27.794Z,54.33
2019-04-11T09:02:27.563Z,53.20
2019-04-11T09:03:27.553Z,53.12
2019-04-11T09:04:27.544Z,53.09
2019-04-11T09:05:27.533Z,52.89
2019-04-11T09:06:28.420Z,53.20
2019-04-11T09:07:27.624Z,52.25
2019-04-11T09:08:27.498Z,52.94
2019-04-11T09:09:27.601Z,52.30
2019-04-11T09:10:28.270Z,50.24
2019-04-11T09:11:28.719Z,51.30
2019-04-11T09:12:28.718Z,51.58
2019-04-11T09:13:27.446Z,52.40
2019-04-11T09:14:28.440Z,50.86
2019-04-11T09:15:28.642Z,51.28
2019-04-11T09:16:27.772Z,51.04
2019-04-11T09:17:28.243Z,51.45
2019-04-11T09:18:28.104Z,51.25
2019-04-11T09:19:27.382Z,49.99
2019-04-11T09:20:27.658Z,50.94
2019-04-11T09:21:28.531Z,51.35
2019-04-11T09:22:27.345Z,50.74
2019-04-11T09:23:27.923Z,49.19
2019-04-11T09:24:27.387Z,50.12
2019-04-11T09:25:28.645Z,48.66
2019-04-11T09:26:27.729Z,48.68
2019-04-11T09:27:27.290Z,48.42
2019-04-11T09:28:27.279Z,48.60
2019-04-11T09:29:28.362Z,50.35
2019-04-11T09:30:28.495Z,51.71
2019-04-11T09:31:27.591Z,51.17
2019-04-11T09:32:28.490Z,50.14
2019-04-11T09:33:27.232Z,49.11
2019-04-11T09:34:28.052Z,49.91
2019-04-11T09:35:27.202Z,48.47
2019-04-11T09:36:28.969Z,48.39
2019-04-11T09:37:27.461Z,49.01
2019-04-11T09:38:27.172Z,48.71
2019-04-11T09:39:27.156Z,46.75
2019-04-11T09:40:28.033Z,46.75
2019-04-11T09:41:28.184Z,46.44
2019-04-11T09:42:28.308Z,47.06
2019-04-11T09:43:28.209Z,44.47
2019-04-11T09:44:27.102Z,45.29
2019-04-11T09:45:27.757Z,44.26
2019-04-11T09:46:27.230Z,45.50
2019-04-11T09:47:28.254Z,45.91
2019-04-11T09:48:27.070Z,46.53
2019-04-11T09:49:27.165Z,46.83
2019-04-11T09:50:27.041Z,46.73
2019-04-11T09:51:29.215Z,47.33
2019-04-11T09:52:27.030Z,45.68
2019-04-11T09:53:28.186Z,46.91
2019-04-11T09:54:28.184Z,47.42
2019-04-11T09:55:26.981Z,46.28
2019-04-11T09:56:27.113Z,46.38
2019-04-11T09:57:26.963Z,45.76
2019-04-11T09:58:27.532Z,44.80
2019-04-11T09:59:27.248Z,46.03
2019-04-11T10:00:28.397Z,46.67
2019-04-11T10:01:26.916Z,47.31
2019-04-11T10:02:27.514Z,48.34
2019-04-11T10:03:27.872Z,49.37
2019-04-11T10:04:27.642Z,49.04
2019-04-11T10:05:26.872Z,49.24
2019-04-11T10:06:28.021Z,47.58
2019-04-11T10:07:28.115Z,47.06
2019-04-11T10:08:26.851Z,47.80
2019-04-11T10:09:28.140Z,47.47
2019-04-11T10:10:26.828Z,47.60
2019-04-11T10:11:28.139Z,48.83
2019-04-11T10:12:27.642Z,48.34
2019-04-11T10:13:26.970Z,47.52
2019-04-11T10:14:26.780Z,48.57
2019-04-11T10:15:27.223Z,48.44
2019-04-11T10:16:26.752Z,48.57
2019-04-11T10:17:26.977Z,48.85
2019-04-11T10:18:32.209Z,49.04
2019-04-11T10:19:27.837Z,48.11
2019-04-11T10:20:26.885Z,48.11
2019-04-11T10:21:26.697Z,49.14
2019-04-11T10:22:27.107Z,48.72
2019-04-11T10:23:27.066Z,49.14
2019-04-11T10:24:26.680Z,49.14
2019-04-11T10:25:28.325Z,49.65
2019-04-11T10:26:27.707Z,49.52
2019-04-11T10:27:26.800Z,49.52
2019-04-11T10:28:27.326Z,49.44
2019-04-11T10:29:29.833Z,48.50
2019-04-11T10:30:26.610Z,47.67
2019-04-11T10:31:26.587Z,48.50
2019-04-11T10:32:27.517Z,46.57
2019-04-11T10:33:26.680Z,47.39
2019-04-11T10:34:27.842Z,46.77
2019-04-11T10:35:26.544Z,46.57
2019-04-11T10:36:27.381Z,48.72
2019-04-11T10:37:27.556Z,48.63
2019-04-11T10:38:26.665Z,48.63
2019-04-11T10:39:27.149Z,48.32
2019-04-11T10:40:26.496Z,48.60
2019-04-11T10:41:26.477Z,48.39
2019-04-11T10:42:26.790Z,48.32
2019-04-11T10:43:26.695Z,48.42
2019-04-11T10:44:26.719Z,49.35
2019-04-11T10:45:26.837Z,49.24
2019-04-11T10:46:27.140Z,49.14
2019-04-11T10:47:27.065Z,48.83
2019-04-11T10:48:34.508Z,49.04
2019-04-11T10:49:28.405Z,48.83
2019-04-11T10:50:26.383Z,48.96
2019-04-11T10:51:26.470Z,48.34
2019-04-11T10:52:26.640Z,49.06
2019-04-11T10:53:26.979Z,49.70
2019-04-11T10:54:26.353Z,49.26
2019-04-11T10:55:27.369Z,48.85
2019-04-11T10:56:26.484Z,48.21
2019-04-11T10:57:26.305Z,48.42
2019-04-11T10:58:26.817Z,48.63
2019-04-11T10:59:27.814Z,48.42
2019-04-11T11:00:27.278Z,47.29
2019-04-11T11:01:26.710Z,48.32
2019-04-11T11:02:26.251Z,48.29
2019-04-11T11:03:27.351Z,47.47
2019-04-11T11:04:27.490Z,48.50
2019-04-11T11:05:26.340Z,47.78
2019-04-11T11:06:27.399Z,48.39
2019-04-11T11:07:26.744Z,48.99
2019-04-11T11:08:26.184Z,46.67
2019-04-11T11:09:26.321Z,47.16
2019-04-11T11:10:26.167Z,47.58
2019-04-11T11:11:26.176Z,48.27
2019-04-11T11:12:27.309Z,47.67
2019-04-11T11:13:26.130Z,47.24
2019-04-11T11:14:26.958Z,48.60
2019-04-11T11:15:27.359Z,46.86
2019-04-11T11:16:28.809Z,47.27
2019-04-11T11:17:47.137Z,46.47
2019-04-11T11:18:53.100Z,47.60
2019-04-11T11:19:43.656Z,47.49
2019-04-11T11:20:33.736Z,47.49
2019-04-11T11:21:30.594Z,47.08
2019-04-11T11:22:27.370Z,46.98
2019-04-11T11:23:26.863Z,46.88
2019-04-11T11:24:26.122Z,46.36
2019-04-11T11:25:26.743Z,46.47
2019-04-11T11:26:26.560Z,46.47
2019-04-11T11:27:26.562Z,47.08
2019-04-11T11:28:25.989Z,45.25
2019-04-11T11:29:26.622Z,46.77
2019-04-11T11:30:27.088Z,45.75
2019-04-11T11:31:25.935Z,46.77
2019-04-11T11:32:27.278Z,45.34
2019-04-11T11:33:26.604Z,44.62
2019-04-11T11:34:25.902Z,44.70
2019-04-11T11:35:29.420Z,45.75
2019-04-11T11:36:26.895Z,46.77
2019-04-11T11:37:25.903Z,46.36
2019-04-11T11:38:26.096Z,44.10
2019-04-11T11:39:26.900Z,43.79
2019-04-11T11:40:25.982Z,44.70
2019-04-11T11:41:25.824Z,43.67
2019-04-11T11:42:26.173Z,44.29
2019-04-11T11:43:25.802Z,43.48
2019-04-11T11:44:25.795Z,43.28
2019-04-11T11:45:25.780Z,43.48
2019-04-11T11:46:29.541Z,43.16
2019-04-11T11:47:27.849Z,43.26
2019-04-11T11:48:26.356Z,43.34
2019-04-11T11:49:41.475Z,42.21
2019-04-11T11:50:26.862Z,42.52
2019-04-11T11:51:29.225Z,42.00
2019-04-11T11:52:26.855Z,40.75
2019-04-11T11:53:27.314Z,39.75
2019-04-11T11:54:25.730Z,38.92
2019-04-11T11:55:25.700Z,38.31
2019-04-11T11:56:26.260Z,38.02
2019-04-11T11:57:26.647Z,38.21
2019-04-11T11:58:25.792Z,38.19
2019-04-11T11:59:25.640Z,38.09
2019-04-11T12:00:25.618Z,39.01
2019-04-11T12:01:25.608Z,39.83
2019-04-11T12:02:26.391Z,39.54
2019-04-11T12:03:28.382Z,42.72
2019-04-11T12:04:26.171Z,44.78
2019-04-11T12:05:26.772Z,44.98
2019-04-11T12:06:25.554Z,46.62
2019-04-11T12:07:25.558Z,47.04
2019-04-11T12:08:25.532Z,46.83
2019-04-11T12:09:26.598Z,46.55
2019-04-11T12:10:26.118Z,46.65
2019-04-11T12:11:26.314Z,46.42
2019-04-11T12:12:25.489Z,44.98
2019-04-11T12:13:26.221Z,44.18
2019-04-11T12:14:25.471Z,45.29
2019-04-11T12:15:27.242Z,46.42
2019-04-11T12:16:25.938Z,45.09
2019-04-11T12:17:25.445Z,44.68
2019-04-11T12:18:26.727Z,43.85
2019-04-11T12:19:26.766Z,44.17
2019-04-11T12:20:25.402Z,44.26
2019-04-11T12:21:28.060Z,44.17
2019-04-11T12:22:25.380Z,43.96
2019-04-11T12:23:25.971Z,43.03
2019-04-11T12:24:25.391Z,43.44
2019-04-11T12:25:25.359Z,44.26
2019-04-11T12:26:28.760Z,43.85
2019-04-11T12:27:26.806Z,44.78
2019-04-11T12:28:25.671Z,44.17
2019-04-11T12:29:25.333Z,43.85
2019-04-11T12:30:29.740Z,44.68
2019-04-11T12:31:26.285Z,44.76
2019-04-11T12:32:25.335Z,44.56
2019-04-11T12:33:25.707Z,45.17
2019-04-11T12:34:26.091Z,44.45
2019-04-11T12:35:26.304Z,45.29
2019-04-11T12:36:26.365Z,45.60
2019-04-11T12:37:25.365Z,46.30
2019-04-11T12:38:25.275Z,44.76
2019-04-11T12:39:25.425Z,44.06
2019-04-11T12:40:25.188Z,44.14
2019-04-11T12:41:25.187Z,44.37
2019-04-11T12:42:25.166Z,44.06
2019-04-11T12:43:25.155Z,44.26
2019-04-11T12:44:26.744Z,45.50
2019-04-11T12:45:25.133Z,44.65
2019-04-11T12:46:29.778Z,44.56
2019-04-11T12:47:26.121Z,43.42
2019-04-11T12:48:25.165Z,43.65
2019-04-11T12:49:25.093Z,43.24
2019-04-11T12:50:25.096Z,44.04
2019-04-11T12:51:25.067Z,42.93
2019-04-11T12:52:25.058Z,43.55
2019-04-11T12:53:25.058Z,43.03
2019-04-11T12:54:25.036Z,42.83
2019-04-11T12:55:25.024Z,43.44